createdAt,value
2022-12-11T00:00:12.519Z,68.55
2022-12-11T00:05:08.728Z,51.38
2022-12-11T00:07:36.743Z,52.92
2022-12-11T00:10:05.156Z,60.45
2022-12-11T00:12:34.172Z,50.08
2022-12-11T00:15:01.780Z,44.53
2022-12-11T00:17:29.417Z,39.20
2022-12-11T00:19:57.052Z,64.25
2022-12-11T00:22:24.683Z,49.58
2022-12-11T00:24:52.763Z,62.30
2022-12-11T00:27:20.417Z,63.78
2022-12-11T00:29:49.397Z,56.70
2022-12-11T00:32:17.028Z,60.60
2022-12-11T00:34:44.655Z,50.50
2022-12-11T00:37:12.382Z,52.95
2022-12-11T00:39:40.797Z,52.67
2022-12-11T00:42:08.731Z,73.18
2022-12-11T00:44:37.155Z,67.03
2022-12-11T00:47:06.191Z,61.33
2022-12-11T00:49:33.825Z,63.70
2022-12-11T00:52:01.592Z,66.20
2022-12-11T00:54:29.268Z,60.25
2022-12-11T00:56:57.172Z,65.85
2022-12-11T00:59:24.793Z,77.20
2022-12-11T01:01:52.436Z,69.90
2022-12-11T01:04:21.417Z,59.97
2022-12-11T01:06:49.104Z,69.93
2022-12-11T01:09:34.400Z,62.55
2022-12-11T01:12:02.065Z,75.38
2022-12-11T01:14:29.689Z,68.53
2022-12-11T01:16:57.610Z,55.75
2022-12-11T01:19:26.647Z,71.55
2022-12-11T01:21:54.347Z,68.47
2022-12-11T01:24:22.042Z,66.07
2022-12-11T01:26:49.808Z,71.05
2022-12-11T01:29:17.464Z,69.93
2022-12-11T01:31:45.114Z,51.42
2022-12-11T01:34:12.915Z,70.70
2022-12-11T01:36:41.896Z,77.78
2022-12-11T01:39:09.580Z,80.60
2022-12-11T01:41:37.290Z,54.25
2022-12-11T01:44:08.495Z,81.20
2022-12-11T01:46:37.430Z,73.50
2022-12-11T01:49:08.446Z,69.00
2022-12-11T01:51:44.024Z,72.65
2022-12-11T01:54:15.918Z,74.85
2022-12-11T01:56:46.060Z,69.05
2022-12-11T01:59:18.765Z,71.43
2022-12-11T02:01:51.287Z,80.32
2022-12-11T02:04:20.956Z,69.95
2022-12-11T02:06:51.833Z,54.13
2022-12-11T02:09:25.029Z,77.82
2022-12-11T02:12:02.504Z,69.65
2022-12-11T02:14:37.064Z,84.00
2022-12-11T02:17:10.664Z,65.25
2022-12-11T02:19:50.107Z,57.70
2022-12-11T02:22:35.703Z,61.80
2022-12-11T02:25:17.964Z,59.53
2022-12-11T02:27:48.772Z,58.67
2022-12-11T02:30:18.423Z,72.53
2022-12-11T02:32:50.009Z,76.05
2022-12-11T02:35:21.496Z,62.75
2022-12-11T02:37:53.768Z,82.85
2022-12-11T02:40:26.493Z,76.15
2022-12-11T02:42:57.454Z,77.60
2022-12-11T02:45:29.238Z,75.72
2022-12-11T02:47:59.787Z,67.65
2022-12-11T02:50:29.904Z,63.60
2022-12-11T02:53:00.719Z,67.63
2022-12-11T02:55:30.988Z,56.88
2022-12-11T02:58:05.247Z,63.47
2022-12-11T03:00:34.284Z,64.78
2022-12-11T03:03:02.740Z,60.83
2022-12-11T03:05:31.421Z,44.65
2022-12-11T03:07:59.174Z,57.80
2022-12-11T03:10:26.871Z,48.00
2022-12-11T03:12:58.235Z,61.85
2022-12-11T03:15:37.413Z,56.85
2022-12-11T03:18:10.015Z,65.28
2022-12-11T03:20:42.344Z,58.92
2022-12-11T03:23:19.224Z,57.92
2022-12-11T03:25:54.567Z,44.90
2022-12-11T03:30:57.489Z,52.33
2022-12-11T03:33:29.044Z,53.33
2022-12-11T03:36:01.955Z,40.83
2022-12-11T03:38:35.368Z,61.20
2022-12-11T03:41:06.510Z,39.70
2022-12-11T03:43:35.296Z,57.00
2022-12-11T03:46:04.593Z,40.15
2022-12-11T03:48:37.122Z,51.08
2022-12-11T03:51:07.622Z,59.30
2022-12-11T03:53:36.940Z,64.13
2022-12-11T03:56:07.093Z,57.30
2022-12-11T03:58:34.847Z,53.70
2022-12-11T04:01:03.904Z,53.63
2022-12-11T04:03:31.556Z,50.60
2022-12-11T04:05:59.231Z,44.92
2022-12-11T04:08:26.867Z,47.45
2022-12-11T04:11:15.050Z,44.22
2022-12-11T04:13:42.894Z,39.47
2022-12-11T04:16:10.999Z,52.00
2022-12-11T04:18:56.355Z,43.63
2022-12-11T04:21:41.571Z,53.65
2022-12-11T04:24:16.246Z,51.75
2022-12-11T04:26:44.943Z,48.75
2022-12-11T04:29:12.919Z,47.90
2022-12-11T04:31:41.979Z,43.80
2022-12-11T04:34:10.026Z,40.80
2022-12-11T04:36:37.752Z,42.63
2022-12-11T04:39:07.127Z,39.00
2022-12-11T04:41:35.084Z,43.38
2022-12-11T04:44:02.918Z,36.88
2022-12-11T04:46:30.759Z,35.85
2022-12-11T04:49:00.316Z,36.25
2022-12-11T04:51:29.131Z,33.13
2022-12-11T04:53:56.784Z,41.97
2022-12-11T04:56:24.473Z,37.38
2022-12-11T04:58:52.124Z,32.65
2022-12-11T05:01:21.997Z,36.25
2022-12-11T05:03:50.239Z,31.73
2022-12-11T05:06:19.247Z,34.72
2022-12-11T05:08:46.916Z,35.17
2022-12-11T05:11:16.248Z,31.10
2022-12-11T05:13:44.522Z,32.60
2022-12-11T05:16:14.060Z,37.75
2022-12-11T05:18:41.799Z,28.98
2022-12-11T05:21:11.747Z,28.90
2022-12-11T05:23:40.818Z,31.38
2022-12-11T05:26:12.502Z,32.40
2022-12-11T05:28:41.274Z,30.65
2022-12-11T05:31:12.688Z,34.65
2022-12-11T05:33:40.691Z,33.15
2022-12-11T05:36:09.362Z,38.13
2022-12-11T05:38:37.224Z,38.95
2022-12-11T05:41:07.745Z,31.08
2022-12-11T05:43:37.650Z,32.97
2022-12-11T05:46:09.873Z,33.55
2022-12-11T05:48:38.425Z,32.08
2022-12-11T05:53:34.818Z,31.55
2022-12-11T05:56:03.724Z,31.38
2022-12-11T05:58:33.200Z,29.45
2022-12-11T06:01:01.015Z,27.88
2022-12-11T06:03:29.073Z,24.00
2022-12-11T06:05:56.679Z,39.17
2022-12-11T06:08:24.379Z,30.63
2022-12-11T06:10:52.051Z,36.63
2022-12-11T06:13:19.698Z,29.08
2022-12-11T06:15:48.800Z,30.58
2022-12-11T06:18:16.526Z,31.98
2022-12-11T06:20:44.354Z,27.10
2022-12-11T06:23:11.988Z,31.75
2022-12-11T06:25:40.173Z,31.92
2022-12-11T06:28:07.845Z,33.67
2022-12-11T06:30:38.807Z,38.20
2022-12-11T06:33:08.611Z,35.30
2022-12-11T06:35:41.933Z,32.30
2022-12-11T06:38:10.508Z,29.33
2022-12-11T06:40:38.218Z,35.90
2022-12-11T06:43:05.857Z,36.70
2022-12-11T06:45:33.627Z,33.97
2022-12-11T06:48:01.307Z,38.90
2022-12-11T06:50:30.321Z,35.95
2022-12-11T06:52:58.114Z,30.77
2022-12-11T06:55:25.760Z,39.22
2022-12-11T06:57:53.363Z,35.58
2022-12-11T07:00:21.409Z,39.40
2022-12-11T07:02:49.044Z,35.10
2022-12-11T07:05:16.687Z,45.63
2022-12-11T07:07:45.777Z,33.33
2022-12-11T07:10:13.695Z,39.45
2022-12-11T07:12:41.353Z,40.13
2022-12-11T07:15:10.243Z,36.63
2022-12-11T07:17:38.104Z,40.38
2022-12-11T07:20:06.656Z,35.50
2022-12-11T07:22:34.305Z,36.60
2022-12-11T07:25:03.332Z,42.47
2022-12-11T07:27:30.995Z,36.35
2022-12-11T07:29:59.004Z,39.53
2022-12-11T07:32:26.859Z,36.53
2022-12-11T07:34:54.649Z,44.92
2022-12-11T07:37:22.249Z,36.10
2022-12-11T07:39:49.988Z,37.60
2022-12-11T07:42:19.003Z,35.55
2022-12-11T07:44:46.624Z,38.72
2022-12-11T07:47:14.234Z,37.17
2022-12-11T07:49:41.860Z,38.42
2022-12-11T07:52:10.040Z,44.72
2022-12-11T07:54:37.752Z,34.83
2022-12-11T07:57:12.300Z,32.95
2022-12-11T07:59:43.260Z,33.28
2022-12-11T08:02:11.885Z,37.65
2022-12-11T08:04:39.830Z,35.65
2022-12-11T08:07:07.492Z,36.35
2022-12-11T08:09:35.090Z,37.55
2022-12-11T08:12:02.745Z,39.63
2022-12-11T08:14:30.416Z,35.08
2022-12-11T08:17:00.253Z,35.90
2022-12-11T08:19:28.688Z,36.65
2022-12-11T08:21:56.349Z,37.13
2022-12-11T08:24:24.052Z,38.13
2022-12-11T08:26:51.715Z,41.10
2022-12-11T08:29:19.411Z,38.85
2022-12-11T08:31:47.047Z,35.42
2022-12-11T08:34:16.056Z,36.13
2022-12-11T08:36:44.281Z,42.67
2022-12-11T08:39:11.934Z,34.67
2022-12-11T08:41:39.797Z,38.05
2022-12-11T08:44:16.280Z,33.88
2022-12-11T08:46:44.967Z,35.85
2022-12-11T08:49:12.558Z,32.90
2022-12-11T08:51:41.595Z,30.85
2022-12-11T08:54:10.853Z,27.65
2022-12-11T08:56:38.523Z,33.17
2022-12-11T08:59:06.296Z,30.67
2022-12-11T09:01:34.135Z,29.65
2022-12-11T09:04:01.821Z,28.38
2022-12-11T09:06:31.621Z,33.25
2022-12-11T09:09:02.300Z,29.77
2022-12-11T09:11:32.375Z,29.92
2022-12-11T09:14:06.817Z,32.08
2022-12-11T09:16:37.653Z,30.92
2022-12-11T09:19:05.335Z,28.30
2022-12-11T09:21:33.013Z,25.05
2022-12-11T09:24:02.445Z,25.90
2022-12-11T09:26:31.046Z,26.50
2022-12-11T09:31:28.535Z,29.85
2022-12-11T09:33:58.356Z,24.10
2022-12-11T09:36:25.991Z,34.35
2022-12-11T09:38:54.127Z,25.40
2022-12-11T09:41:40.426Z,30.25
2022-12-11T09:44:19.035Z,29.33
2022-12-11T09:46:47.716Z,35.63
2022-12-11T09:49:24.656Z,27.77
2022-12-11T09:52:00.960Z,32.05
2022-12-11T09:54:28.859Z,27.77
2022-12-11T09:57:08.200Z,34.58
2022-12-11T09:59:45.885Z,30.33
2022-12-11T10:02:25.154Z,32.00
2022-12-11T10:05:04.512Z,32.20
2022-12-11T10:07:39.020Z,32.08
2022-12-11T10:10:16.459Z,29.50
2022-12-11T10:12:53.844Z,28.63
2022-12-11T10:15:30.672Z,30.23
2022-12-11T10:18:04.838Z,24.88
2022-12-11T10:20:36.571Z,30.83
2022-12-11T10:23:07.532Z,30.23
2022-12-11T10:25:38.087Z,29.25
2022-12-11T10:28:13.375Z,27.83
2022-12-11T10:30:52.551Z,29.67
2022-12-11T10:33:23.481Z,28.95
2022-12-11T10:35:53.086Z,32.80
2022-12-11T10:38:28.472Z,33.30
2022-12-11T10:40:59.418Z,28.73
2022-12-11T10:43:36.227Z,26.92
2022-12-11T10:46:06.073Z,31.10
2022-12-11T10:48:34.223Z,26.98
2022-12-11T10:51:04.948Z,27.75
2022-12-11T10:53:34.799Z,24.02
2022-12-11T10:56:03.148Z,25.38
2022-12-11T10:58:34.082Z,23.63
2022-12-11T11:01:08.535Z,27.27
2022-12-11T11:03:42.060Z,24.38
2022-12-11T11:06:17.806Z,25.23
2022-12-11T11:08:47.520Z,27.88
2022-12-11T11:11:24.377Z,24.92
2022-12-11T11:13:52.941Z,25.90
2022-12-11T11:18:54.439Z,32.45
2022-12-11T11:21:24.903Z,22.35
2022-12-11T11:23:54.052Z,23.15
2022-12-11T11:26:23.136Z,20.15
2022-12-11T11:28:54.124Z,26.85
2022-12-11T11:31:31.598Z,24.38
2022-12-11T11:34:03.206Z,25.13
2022-12-11T11:36:33.371Z,27.05
2022-12-11T11:39:14.671Z,27.35
2022-12-11T11:41:50.723Z,30.45
2022-12-11T11:44:26.421Z,22.67
2022-12-11T11:47:01.678Z,23.95
2022-12-11T11:49:45.676Z,24.70
2022-12-11T11:52:18.447Z,22.80
2022-12-11T11:54:52.429Z,17.42
2022-12-11T11:57:29.138Z,19.02
2022-12-11T12:00:08.024Z,27.92
2022-12-11T12:02:37.630Z,20.05
2022-12-11T12:05:06.035Z,23.73
2022-12-11T12:07:42.044Z,21.88
2022-12-11T12:10:18.000Z,21.63
2022-12-11T12:12:54.695Z,25.73
2022-12-11T12:15:32.735Z,26.60
2022-12-11T12:18:10.672Z,24.52
2022-12-11T12:20:47.249Z,25.23
2022-12-11T12:23:43.859Z,22.40
2022-12-11T12:26:18.469Z,25.60
2022-12-11T12:28:55.143Z,31.73
2022-12-11T12:31:38.122Z,24.73
2022-12-11T12:34:15.511Z,25.60
2022-12-11T12:36:51.945Z,21.80
2022-12-11T12:39:30.827Z,26.67
2022-12-11T12:42:08.161Z,26.33
2022-12-11T12:44:43.454Z,26.75
2022-12-11T12:47:14.780Z,23.17
2022-12-11T12:49:46.985Z,22.23
2022-12-11T12:52:18.351Z,24.27
2022-12-11T12:55:03.623Z,29.25
2022-12-11T12:57:32.055Z,21.52
2022-12-11T12:59:59.704Z,24.10
2022-12-11T13:02:28.315Z,24.63
2022-12-11T13:05:03.797Z,27.75
2022-12-11T13:07:33.032Z,26.95
2022-12-11T13:10:05.295Z,27.92
2022-12-11T13:12:41.432Z,32.13
2022-12-11T13:15:34.891Z,24.48
2022-12-11T13:18:05.621Z,27.35
2022-12-11T13:20:35.897Z,28.30
2022-12-11T13:23:19.318Z,26.90
2022-12-11T13:25:53.164Z,27.55
2022-12-11T13:28:23.450Z,29.38
2022-12-11T13:31:02.036Z,27.33
2022-12-11T13:33:30.959Z,28.23
2022-12-11T13:36:26.917Z,30.95
2022-12-11T13:38:57.332Z,30.17
2022-12-11T13:41:25.684Z,27.17
2022-12-11T13:43:54.543Z,29.77
2022-12-11T13:46:26.246Z,27.38
2022-12-11T13:48:57.251Z,31.77
2022-12-11T13:51:27.825Z,28.70
2022-12-11T13:54:17.213Z,32.60
2022-12-11T13:56:55.941Z,32.03
2022-12-11T13:59:27.278Z,23.38
2022-12-11T14:01:58.906Z,25.85
2022-12-11T14:04:28.091Z,26.52
2022-12-11T14:06:58.354Z,28.23
2022-12-11T14:09:28.470Z,26.88
2022-12-11T14:11:59.171Z,32.75
2022-12-11T14:14:39.694Z,35.40
2022-12-11T14:17:07.542Z,32.60
2022-12-11T14:19:35.244Z,38.35
2022-12-11T14:22:07.838Z,33.70
2022-12-11T14:24:35.848Z,33.00
2022-12-11T14:27:04.764Z,31.23
2022-12-11T14:29:34.773Z,33.65
2022-12-11T14:32:06.666Z,29.90
2022-12-11T14:34:38.072Z,27.98
2022-12-11T14:37:08.718Z,29.92
2022-12-11T14:39:40.046Z,35.60
2022-12-11T14:42:13.355Z,37.28
2022-12-11T14:44:49.310Z,33.30
2022-12-11T14:47:21.171Z,32.03
2022-12-11T14:49:54.705Z,27.77
2022-12-11T14:52:27.025Z,35.30
2022-12-11T14:54:58.269Z,34.90
2022-12-11T14:57:30.114Z,35.90
2022-12-11T14:59:58.191Z,31.08
2022-12-11T15:02:30.645Z,32.05
2022-12-11T15:05:06.792Z,33.35
2022-12-11T15:07:35.805Z,32.35
2022-12-11T15:10:04.022Z,30.02
2022-12-11T15:12:32.577Z,30.17
2022-12-11T15:17:29.960Z,27.90
2022-12-11T15:20:04.810Z,28.63
2022-12-11T15:22:33.690Z,34.72
2022-12-11T15:25:03.173Z,28.10
2022-12-11T15:27:35.456Z,31.40
2022-12-11T15:30:03.349Z,25.30
2022-12-11T15:32:31.446Z,31.20
2022-12-11T15:35:00.796Z,27.10
2022-12-11T15:37:30.197Z,30.73
2022-12-11T15:39:59.444Z,33.13
2022-12-11T15:42:31.316Z,35.97
2022-12-11T15:45:00.395Z,36.08
2022-12-11T15:47:30.003Z,31.77
2022-12-11T15:50:00.373Z,32.50
2022-12-11T15:52:28.233Z,24.58
2022-12-11T15:54:55.930Z,25.42
2022-12-11T15:57:25.700Z,34.75
2022-12-11T15:59:56.196Z,25.20
2022-12-11T16:02:26.592Z,34.42
2022-12-11T16:04:54.481Z,29.02
2022-12-11T16:07:24.722Z,29.10
2022-12-11T16:09:53.681Z,28.92
2022-12-11T16:12:21.350Z,31.13
2022-12-11T16:14:48.963Z,24.83
2022-12-11T16:17:18.218Z,27.85
2022-12-11T16:19:45.909Z,25.05
2022-12-11T16:22:15.119Z,31.65
2022-12-11T16:24:42.960Z,27.90
2022-12-11T16:27:10.667Z,28.20
2022-12-11T16:29:39.484Z,30.10
2022-12-11T16:32:08.694Z,32.97
2022-12-11T16:34:38.613Z,37.65
2022-12-11T16:37:07.780Z,31.63
2022-12-11T16:39:36.789Z,27.42
2022-12-11T16:42:04.936Z,29.20
2022-12-11T16:44:32.653Z,28.55
2022-12-11T16:47:00.385Z,28.95
2022-12-11T16:49:28.055Z,21.65
2022-12-11T16:51:57.061Z,28.00
2022-12-11T16:54:24.701Z,27.63
2022-12-11T16:56:52.357Z,28.98
2022-12-11T16:59:19.976Z,24.80
2022-12-11T17:01:47.647Z,29.30
2022-12-11T17:04:15.374Z,33.53
2022-12-11T17:06:43.086Z,19.73
2022-12-11T17:09:12.065Z,28.05
2022-12-11T17:11:39.735Z,28.38
2022-12-11T17:14:07.420Z,26.42
2022-12-11T17:16:35.126Z,27.83
2022-12-11T17:19:03.447Z,33.10
2022-12-11T17:21:31.088Z,24.67
2022-12-11T17:23:58.703Z,26.55
2022-12-11T17:26:28.564Z,22.50
2022-12-11T17:28:57.415Z,26.98
2022-12-11T17:31:25.130Z,24.42
2022-12-11T17:33:53.988Z,29.80
2022-12-11T17:36:23.244Z,29.65
2022-12-11T17:38:50.956Z,25.27
2022-12-11T17:41:21.013Z,25.58
2022-12-11T17:43:51.742Z,30.60
2022-12-11T17:46:20.738Z,26.05
2022-12-11T17:48:49.235Z,27.92
2022-12-11T17:51:21.864Z,20.83
2022-12-11T17:53:49.546Z,25.10
2022-12-11T17:56:17.498Z,24.15
2022-12-11T17:58:45.518Z,29.10
2022-12-11T18:01:14.813Z,24.02
2022-12-11T18:03:43.158Z,26.92
2022-12-11T18:06:14.625Z,27.08
2022-12-11T18:08:44.309Z,25.17
2022-12-11T18:11:14.586Z,20.75
2022-12-11T18:13:42.932Z,25.75
2022-12-11T18:16:16.739Z,24.73
2022-12-11T18:18:45.820Z,28.67
2022-12-11T18:21:14.343Z,23.70
2022-12-11T18:26:10.987Z,23.80
2022-12-11T18:28:38.723Z,25.27
2022-12-11T18:31:07.645Z,27.40
2022-12-11T18:33:38.253Z,28.00
2022-12-11T18:36:07.001Z,23.45
2022-12-11T18:38:35.082Z,24.50
2022-12-11T18:41:04.452Z,27.00
2022-12-11T18:43:32.135Z,27.17
2022-12-11T18:45:59.797Z,27.63
2022-12-11T18:48:27.473Z,27.90
2022-12-11T18:50:56.484Z,25.95
2022-12-11T18:53:24.152Z,22.85
2022-12-11T18:55:55.818Z,24.63
2022-12-11T18:58:26.467Z,24.63
2022-12-11T19:00:54.198Z,22.08
2022-12-11T19:03:21.874Z,22.02
2022-12-11T19:05:49.519Z,22.42
2022-12-11T19:08:18.558Z,20.30
2022-12-11T19:10:47.999Z,24.05
2022-12-11T19:13:15.940Z,25.20
2022-12-11T19:15:45.037Z,19.60
2022-12-11T19:18:12.786Z,25.10
2022-12-11T19:20:53.888Z,19.52
2022-12-11T19:23:31.964Z,22.20
2022-12-11T19:25:59.593Z,18.77
2022-12-11T19:28:27.268Z,21.48
2022-12-11T19:30:54.932Z,20.98
2022-12-11T19:33:22.543Z,21.90
2022-12-11T19:35:50.186Z,22.33
2022-12-11T19:38:17.840Z,22.88
2022-12-11T19:40:46.912Z,22.73
2022-12-11T19:43:14.520Z,22.30
2022-12-11T19:45:42.620Z,20.27
2022-12-11T19:48:10.256Z,23.08
2022-12-11T19:50:37.942Z,25.25
2022-12-11T19:53:05.607Z,22.25
2022-12-11T19:55:33.782Z,17.63
2022-12-11T19:58:02.814Z,16.50
2022-12-11T20:00:30.470Z,16.13
2022-12-11T20:02:58.331Z,21.90
2022-12-11T20:05:26.001Z,21.02
2022-12-11T20:07:53.669Z,19.13
2022-12-11T20:10:21.388Z,20.55
2022-12-11T20:12:49.034Z,19.05
2022-12-11T20:15:20.427Z,20.30
2022-12-11T20:17:48.103Z,21.38
2022-12-11T20:20:15.719Z,20.95
2022-12-11T20:22:43.408Z,19.77
2022-12-11T20:25:11.440Z,18.50
2022-12-11T20:27:39.592Z,20.95
2022-12-11T20:30:08.281Z,23.10
2022-12-11T20:32:37.337Z,23.13
2022-12-11T20:35:05.952Z,19.38
2022-12-11T20:37:33.971Z,19.15
2022-12-11T20:40:02.223Z,20.80
2022-12-11T20:42:29.869Z,20.65
2022-12-11T20:44:57.503Z,22.70
2022-12-11T20:47:26.448Z,23.92
2022-12-11T20:49:55.609Z,17.98
2022-12-11T20:52:23.358Z,20.98
2022-12-11T20:54:51.050Z,20.33
2022-12-11T20:57:18.856Z,23.83
2022-12-11T20:59:46.730Z,19.08
2022-12-11T21:02:14.465Z,24.23
2022-12-11T21:05:11.971Z,20.50
2022-12-11T21:07:39.721Z,17.58
2022-12-11T21:10:08.296Z,21.33
2022-12-11T21:12:38.115Z,22.90
2022-12-11T21:15:06.471Z,19.98
2022-12-11T21:17:35.523Z,19.92
2022-12-11T21:20:05.435Z,21.58
2022-12-11T21:22:33.117Z,18.15
2022-12-11T21:25:00.783Z,20.25
2022-12-11T21:27:28.480Z,19.08
2022-12-11T21:29:56.305Z,18.67
2022-12-11T21:32:24.081Z,22.50
2022-12-11T21:34:51.960Z,21.58
2022-12-11T21:37:20.948Z,22.02
2022-12-11T21:39:48.569Z,19.17
2022-12-11T21:42:16.233Z,20.02
2022-12-11T21:47:31.514Z,19.10
2022-12-11T21:49:59.184Z,21.17
2022-12-11T21:52:28.166Z,20.00
2022-12-11T21:54:56.576Z,22.90
2022-12-11T21:57:26.480Z,23.60
2022-12-11T21:59:54.601Z,20.58
2022-12-11T22:02:22.406Z,19.17
2022-12-11T22:04:50.171Z,19.73
2022-12-11T22:07:17.860Z,17.42
2022-12-11T22:09:46.849Z,22.23
2022-12-11T22:12:22.155Z,22.30
2022-12-11T22:17:18.174Z,21.73
2022-12-11T22:22:16.326Z,22.50
2022-12-11T22:24:43.914Z,19.60
2022-12-11T22:27:12.888Z,22.23
2022-12-11T22:29:40.586Z,22.23
2022-12-11T22:32:08.225Z,25.70
2022-12-11T22:34:36.181Z,26.15
2022-12-11T22:37:03.826Z,25.92
2022-12-11T22:39:31.483Z,24.50
2022-12-11T22:41:59.648Z,25.92
2022-12-11T22:44:28.632Z,18.85
2022-12-11T22:46:56.235Z,21.15
2022-12-11T22:49:24.033Z,19.98
2022-12-11T22:51:51.671Z,26.55
2022-12-11T22:54:19.303Z,22.58
2022-12-11T22:56:46.920Z,24.05
2022-12-11T22:59:14.827Z,21.00
2022-12-11T23:01:43.833Z,26.02
2022-12-11T23:04:11.502Z,27.23
2022-12-11T23:06:39.266Z,21.75
2022-12-11T23:09:07.206Z,21.98
2022-12-11T23:11:37.366Z,22.90
2022-12-11T23:14:06.980Z,26.83
2022-12-11T23:16:35.111Z,21.55
2022-12-11T23:19:04.851Z,23.40
2022-12-11T23:21:33.283Z,23.75
2022-12-11T23:24:01.953Z,17.83
2022-12-11T23:26:29.839Z,23.10
2022-12-11T23:28:58.883Z,24.70
2022-12-11T23:31:27.519Z,24.38
2022-12-11T23:33:55.288Z,18.27
2022-12-11T23:36:25.250Z,22.25
2022-12-11T23:38:54.938Z,24.05
2022-12-11T23:41:23.303Z,28.23
2022-12-11T23:43:50.965Z,24.63
2022-12-11T23:46:21.311Z,24.60
2022-12-11T23:48:49.634Z,26.65
2022-12-11T23:51:19.413Z,21.48
2022-12-11T23:53:48.811Z,21.83
2022-12-11T23:56:18.661Z,22.25
2022-12-11T23:58:46.373Z,18.50
